Time;durP1;ratioP1;P1;durP2;ratioP2;P2;SDS_P1;SDS_P2;PMS_P1;PMS_P2;Temp;Humidity;BMP_temperature;BMP_pressure;BME280_temperature;BME280_humidity;BME280_pressure;Samples;Min_cycle;Max_cycle;Signal;HPM_P1;HPM_P2
2022/03/28 00:01:54;;;;;;;30.30;15.17;;;;;;;4.32;100.00;101376.31;7391442;19;20387;-51
2022/03/28 00:04:24;;;;;;;37.50;16.10;;;;;;;4.07;100.00;101376.97;7397277;19;20754;-50
2022/03/28 00:06:54;;;;;;;33.80;14.57;;;;;;;4.01;100.00;101381.59;7389607;19;20383;-49
2022/03/28 00:09:23;;;;;;;34.70;15.00;;;;;;;4.25;100.00;101371.50;7393282;19;20419;-49
2022/03/28 00:11:55;;;;;;;31.97;15.23;;;;;;;4.59;100.00;101363.84;7390791;19;20390;-52
2022/03/28 00:14:25;;;;;;;36.97;15.80;;;;;;;4.51;100.00;101370.06;7400967;19;20383;-51
2022/03/28 00:16:55;;;;;;;41.80;20.53;;;;;;;4.46;100.00;101367.13;7390772;19;20379;-50
2022/03/28 00:19:24;;;;;;;26.73;12.67;;;;;;;4.38;100.00;101373.31;7393500;19;20423;-51
2022/03/28 00:21:54;;;;;;;24.73;12.03;;;;;;;4.31;100.00;101370.28;7387834;19;20387;-49
2022/03/28 00:24:23;;;;;;;21.30;10.70;;;;;;;4.24;100.00;101364.59;7396307;19;20398;-48
2022/03/28 00:26:56;;;;;;;27.37;13.50;;;;;;;4.18;100.00;101363.38;7388126;19;20384;-51
2022/03/28 00:29:25;;;;;;;27.70;12.07;;;;;;;4.21;100.00;101354.16;7392212;19;20398;-47
2022/03/28 00:31:55;;;;;;;27.90;13.47;;;;;;;4.31;100.00;101351.53;7388007;19;20359;-50
2022/03/28 00:34:24;;;;;;;22.53;12.40;;;;;;;4.19;100.00;101349.81;7395881;19;20386;-49
2022/03/28 00:36:54;;;;;;;24.60;12.33;;;;;;;4.19;100.00;101342.16;7393439;19;20404;-49
2022/03/28 00:39:24;;;;;;;32.47;15.33;;;;;;;4.31;100.00;101331.09;7392848;19;20422;-49
2022/03/28 00:41:56;;;;;;;28.23;14.00;;;;;;;4.49;100.00;101315.34;7390785;19;20371;-51
2022/03/28 00:44:25;;;;;;;35.27;15.37;;;;;;;4.39;100.00;101314.69;7395143;19;20377;-53
2022/03/28 00:46:55;;;;;;;30.53;14.20;;;;;;;4.21;100.00;101319.28;7389534;19;20383;-47
2022/03/28 00:49:25;;;;;;;26.97;12.93;;;;;;;4.11;100.00;101317.66;7392940;19;20439;-49
2022/03/28 00:51:54;;;;;;;26.40;12.20;;;;;;;4.04;100.00;101311.22;7389375;19;21233;-48
2022/03/28 00:54:24;;;;;;;26.53;13.13;;;;;;;4.04;100.00;101316.31;7394670;19;20398;-50
2022/03/28 00:56:56;;;;;;;22.30;11.20;;;;;;;3.96;100.00;101314.84;7391343;19;20391;-48
2022/03/28 00:59:26;;;;;;;22.00;11.60;;;;;;;4.07;100.00;101304.53;7392120;19;20387;-54
2022/03/28 01:01:55;;;;;;;24.23;11.27;;;;;;;4.05;100.00;101307.88;7390180;19;20744;-50
2022/03/28 01:04:25;;;;;;;31.50;11.63;;;;;;;4.27;100.00;101306.06;7394778;19;20475;-47
2022/03/28 01:06:55;;;;;;;20.37;11.10;;;;;;;4.41;100.00;101296.91;7387580;19;20910;-47
2022/03/28 01:09:24;;;;;;;23.80;11.70;;;;;;;4.30;100.00;101296.06;7392032;19;20413;-49
2022/03/28 01:11:57;;;;;;;21.03;10.80;;;;;;;4.12;100.00;101293.94;7390060;19;20390;-48
2022/03/28 01:14:39;;;;;;;19.10;9.90;;;;;;;4.00;100.00;101298.09;7394507;19;20374;-50
2022/03/28 01:19:53;;;;;;;19.57;9.20;;;;;;;3.78;100.00;101301.50;7395690;19;20926;-56
2022/03/28 01:22:25;;;;;;;20.60;9.47;;;;;;;3.72;100.00;101295.94;7387702;19;20913;-49
2022/03/28 01:24:55;;;;;;;21.33;10.63;;;;;;;3.69;100.00;101298.25;7393713;19;20930;-52
2022/03/28 01:27:25;;;;;;;26.63;12.90;;;;;;;3.74;100.00;101284.19;7385287;19;20425;-53
2022/03/28 01:29:55;;;;;;;23.20;11.27;;;;;;;3.88;100.00;101291.25;7394196;19;20947;-51
2022/03/28 01:32:24;;;;;;;27.27;12.80;;;;;;;3.87;100.00;101289.47;7389031;19;20430;-50
2022/03/28 01:34:54;;;;;;;31.43;12.13;;;;;;;3.85;100.00;101288.44;7393584;19;20384;-51
2022/03/28 01:37:26;;;;;;;24.33;11.83;;;;;;;3.88;100.00;101278.50;7388731;19;20426;-53
2022/03/28 01:39:55;;;;;;;23.50;12.07;;;;;;;3.92;100.00;101275.41;7392473;19;20384;-52
2022/03/28 01:42:25;;;;;;;23.30;12.10;;;;;;;3.87;100.00;101281.81;7388872;19;20841;-51
2022/03/28 01:44:55;;;;;;;29.70;13.80;;;;;;;3.92;100.00;101270.31;7392822;19;20378;-52
2022/03/28 01:47:24;;;;;;;21.10;11.10;;;;;;;4.28;100.00;101266.97;7387395;19;20399;-48
2022/03/28 01:49:54;;;;;;;18.97;10.10;;;;;;;4.07;100.00;101286.66;7393385;19;20383;-56
2022/03/28 01:52:26;;;;;;;21.23;11.33;;;;;;;4.01;100.00;101289.66;7388480;19;20418;-48
2022/03/28 01:54:55;;;;;;;19.63;10.80;;;;;;;3.75;100.00;101291.09;7393219;19;20380;-50
2022/03/28 01:57:25;;;;;;;17.67;9.63;;;;;;;3.73;100.00;101287.50;7386971;19;20760;-48
2022/03/28 01:59:54;;;;;;;16.87;8.40;;;;;;;3.65;100.00;101286.91;7392792;19;20393;-51
2022/03/28 02:02:24;;;;;;;16.57;8.30;;;;;;;3.58;100.00;101282.97;7386943;19;20760;-50
2022/03/28 02:04:53;;;;;;;17.97;8.77;;;;;;;3.70;100.00;101292.38;7392736;19;20877;-49
2022/03/28 02:07:25;;;;;;;15.10;7.67;;;;;;;3.58;100.00;101285.53;7387354;19;20398;-48
2022/03/28 02:09:55;;;;;;;15.50;7.97;;;;;;;3.58;100.00;101277.00;7396998;19;20908;-50
2022/03/28 02:12:27;;;;;;;14.77;7.90;;;;;;;3.51;100.00;101275.63;7387246;19;20397;-47
2022/03/28 02:14:57;;;;;;;22.30;9.30;;;;;;;3.48;100.00;101270.25;7393034;19;20377;-50
2022/03/28 02:17:26;;;;;;;22.07;10.90;;;;;;;3.52;100.00;101264.63;7387298;19;20960;-51
2022/03/28 02:19:55;;;;;;;20.80;9.60;;;;;;;3.73;100.00;101256.88;7392913;19;20375;-47
2022/03/28 02:22:27;;;;;;;27.10;11.27;;;;;;;3.86;100.00;101259.63;7385845;19;20854;-50
2022/03/28 02:24:57;;;;;;;26.67;11.87;;;;;;;3.88;100.00;101252.97;7392511;19;20371;-52
2022/03/28 02:27:26;;;;;;;26.07;12.40;;;;;;;3.97;100.00;101251.88;7386063;19;20394;-53
2022/03/28 02:29:56;;;;;;;27.23;12.90;;;;;;;3.84;100.00;101248.38;7392559;19;20381;-49
2022/03/28 02:32:25;;;;;;;31.27;14.50;;;;;;;3.97;100.00;101242.56;7384562;19;20478;-48
2022/03/28 02:34:55;;;;;;;31.07;14.90;;;;;;;3.64;100.00;101257.94;7391919;19;20705;-51
2022/03/28 02:37:27;;;;;;;40.50;18.27;;;;;;;3.68;100.00;101260.75;7386984;19;20423;-50
2022/03/28 02:39:57;;;;;;;35.57;17.27;;;;;;;3.70;100.00;101261.75;7392364;19;20384;-48
2022/03/28 02:42:26;;;;;;;35.60;16.77;;;;;;;3.94;100.00;101247.41;7385352;19;20413;-51
2022/03/28 02:44:56;;;;;;;36.93;17.47;;;;;;;4.18;100.00;101243.31;7391997;19;20394;-53
2022/03/28 02:47:26;;;;;;;34.93;17.93;;;;;;;4.12;100.00;101242.84;7386411;19;20401;-45
2022/03/28 02:49:55;;;;;;;40.27;18.80;;;;;;;3.95;100.00;101249.19;7391962;19;20374;-48
2022/03/28 02:52:28;;;;;;;39.77;18.90;;;;;;;4.18;100.00;101250.06;7392546;19;20405;-48
2022/03/28 02:54:57;;;;;;;42.57;19.43;;;;;;;4.04;100.00;101243.91;7399036;19;20384;-47
2022/03/28 02:57:26;;;;;;;41.17;17.83;;;;;;;3.89;100.00;101248.72;7392480;19;21064;-48
2022/03/28 02:59:56;;;;;;;33.83;15.27;;;;;;;3.87;100.00;101243.53;7399816;19;20371;-50
2022/03/28 03:02:26;;;;;;;27.87;14.07;;;;;;;3.75;100.00;101243.44;7391260;19;20412;-48
2022/03/28 03:04:56;;;;;;;28.80;13.93;;;;;;;3.76;100.00;101236.69;7398642;19;21188;-50
2022/03/28 03:07:28;;;;;;;25.13;11.27;;;;;;;3.81;100.00;101232.84;7391176;19;20414;-51
2022/03/28 03:09:57;;;;;;;27.13;12.77;;;;;;;3.85;100.00;101227.19;7398727;19;20371;-48
2022/03/28 03:12:26;;;;;;;24.90;11.57;;;;;;;3.78;100.00;101235.16;7395677;19;20402;-49
2022/03/28 03:14:56;;;;;;;21.97;11.00;;;;;;;3.83;100.00;101227.84;7398404;19;20387;-52
2022/03/28 03:17:25;;;;;;;22.03;9.83;;;;;;;3.83;100.00;101226.19;7391078;19;20418;-49
2022/03/28 03:19:55;;;;;;;20.30;9.77;;;;;;;4.21;100.00;101206.00;7398688;19;20370;-52
2022/03/28 03:22:24;;;;;;;22.87;10.90;;;;;;;4.02;100.00;101213.16;7390381;19;20415;-50
2022/03/28 03:24:56;;;;;;;19.60;9.43;;;;;;;3.83;100.00;101218.53;7398007;19;20407;-52
2022/03/28 03:27:26;;;;;;;20.67;8.30;;;;;;;3.76;100.00;101213.72;7390722;19;20399;-48
2022/03/28 03:29:55;;;;;;;18.70;8.90;;;;;;;3.65;100.00;101208.69;7398066;19;20387;-46
2022/03/28 03:32:25;;;;;;;17.83;7.07;;;;;;;3.68;100.00;101199.50;7393659;19;20411;-50
2022/03/28 03:34:55;;;;;;;8.37;5.30;;;;;;;3.60;100.00;101199.78;7397804;19;20457;-47
2022/03/28 03:37:24;;;;;;;9.33;4.50;;;;;;;3.60;100.00;101193.78;7391616;19;20403;-52
2022/03/28 03:39:56;;;;;;;12.27;4.50;;;;;;;3.49;100.00;101195.53;7397615;19;20929;-52
2022/03/28 03:42:26;;;;;;;7.43;3.83;;;;;;;3.35;100.00;101199.53;7391113;19;20760;-46
2022/03/28 03:44:55;;;;;;;8.33;4.47;;;;;;;3.37;100.00;101185.25;7397276;19;20394;-52
2022/03/28 03:47:25;;;;;;;10.33;5.30;;;;;;;3.38;100.00;101180.25;7390199;19;20429;-51
2022/03/28 03:49:54;;;;;;;7.97;4.87;;;;;;;3.43;100.00;101182.28;7397517;19;20459;-47
2022/03/28 03:52:23;;;;;;;9.47;5.20;;;;;;;3.59;100.00;101172.47;7392822;19;20415;-50
2022/03/28 03:54:53;;;;;;;9.50;5.23;;;;;;;3.58;100.00;101157.94;7397229;19;20463;-51
2022/03/28 03:57:25;;;;;;;11.50;5.33;;;;;;;3.70;100.00;101154.56;7391501;19;20422;-52
2022/03/28 03:59:55;;;;;;;10.70;5.60;;;;;;;3.55;100.00;101157.72;7396926;19;20941;-48
2022/03/28 04:02:30;;;;;;;8.90;5.63;;;;;;;3.61;100.00;101140.34;7389609;19;20773;-49
2022/03/28 04:05:01;;;;;;;10.23;5.67;;;;;;;3.67;100.00;101145.00;7396641;19;20435;-49
2022/03/28 04:07:30;;;;;;;9.13;5.40;;;;;;;3.85;100.00;101140.38;7392325;19;20411;-48
2022/03/28 04:10:02;;;;;;;10.00;5.60;;;;;;;3.73;100.00;101149.66;7396272;19;20395;-50
2022/03/28 04:12:34;;;;;;;14.00;6.10;;;;;;;3.67;100.00;101145.00;7389951;19;20439;-48
2022/03/28 04:15:04;;;;;;;12.97;5.20;;;;;;;3.61;100.00;101144.53;7396596;19;20363;-52
2022/03/28 04:17:41;;;;;;;9.83;5.53;;;;;;;3.69;100.00;101134.91;7390755;19;20771;-52
2022/03/28 04:20:12;;;;;;;16.63;6.07;;;;;;;3.72;100.00;101130.03;7396580;19;20373;-47
2022/03/28 04:22:42;;;;;;;11.40;4.90;;;;;;;3.65;100.00;101138.91;7388340;19;20430;-52
2022/03/28 04:25:13;;;;;;;12.43;6.50;;;;;;;3.65;100.00;101123.59;7396297;19;20446;-54
2022/03/28 04:27:45;;;;;;;8.73;4.90;;;;;;;3.68;100.00;101121.25;7390111;19;20414;-47
2022/03/28 04:30:15;;;;;;;8.40;5.00;;;;;;;3.80;100.00;101126.41;7400481;19;20375;-49
2022/03/28 04:32:45;;;;;;;10.30;5.37;;;;;;;3.67;100.00;101134.78;7389934;19;20403;-51
2022/03/28 04:35:15;;;;;;;8.33;4.07;;;;;;;3.58;100.00;101134.97;7396036;19;20444;-54
2022/03/28 04:37:46;;;;;;;10.80;4.60;;;;;;;3.65;100.00;101121.91;7387000;19;20438;-46
2022/03/28 04:40:18;;;;;;;9.00;4.50;;;;;;;3.78;100.00;101130.47;7395714;19;20418;-46
2022/03/28 04:42:50;;;;;;;14.80;6.70;;;;;;;3.80;100.00;101122.94;7388531;19;20441;-48
2022/03/28 04:45:20;;;;;;;12.57;4.53;;;;;;;3.67;100.00;101118.56;7395239;19;20731;-49
2022/03/28 04:47:50;;;;;;;6.60;3.90;;;;;;;3.60;100.00;101118.09;7389042;19;20427;-48
2022/03/28 04:50:20;;;;;;;7.13;4.00;;;;;;;3.50;100.00;101115.66;7395492;19;20390;-53
2022/03/28 04:52:49;;;;;;;8.90;3.70;;;;;;;3.50;100.00;101120.75;7390803;19;20412;-51
2022/03/28 04:55:19;;;;;;;6.33;2.60;;;;;;;3.30;100.00;101122.66;7395053;19;20392;-50
2022/03/28 04:57:51;;;;;;;6.33;3.30;;;;;;;3.28;100.00;101115.66;7389385;19;20435;-49
2022/03/28 05:00:20;;;;;;;8.57;3.47;;;;;;;3.57;100.00;101110.22;7394818;19;20831;-52
2022/03/28 05:02:50;;;;;;;5.10;3.00;;;;;;;3.57;100.00;101107.69;7390047;19;20410;-49
2022/03/28 05:05:20;;;;;;;5.70;2.80;;;;;;;3.57;100.00;101100.03;7394817;19;20431;-46
2022/03/28 05:07:49;;;;;;;7.80;3.60;;;;;;;3.66;100.00;101104.94;7387905;19;20423;-52
2022/03/28 05:10:19;;;;;;;7.20;3.80;;;;;;;3.68;100.00;101097.41;7396207;19;20396;-49
2022/03/28 05:12:51;;;;;;;9.80;3.60;;;;;;;3.60;100.00;101113.00;7389096;19;20414;-55
2022/03/28 05:15:20;;;;;;;6.63;3.70;;;;;;;3.47;100.00;101105.19;7393479;19;20420;-53
2022/03/28 05:17:50;;;;;;;5.40;3.20;;;;;;;3.68;100.00;101117.81;7386869;19;20945;-48
2022/03/28 05:20:19;;;;;;;8.13;3.60;;;;;;;3.82;100.00;101116.28;7394434;19;20394;-54
2022/03/28 05:22:49;;;;;;;7.70;3.23;;;;;;;3.82;100.00;101114.63;7385229;19;20518;-48
2022/03/28 05:25:18;;;;;;;3.80;2.30;;;;;;;3.53;100.00;101115.88;7394178;19;20386;-52
2022/03/28 05:27:51;;;;;;;5.77;2.77;;;;;;;3.52;100.00;101116.66;7388103;19;20422;-48
2022/03/28 05:30:20;;;;;;;3.60;2.00;;;;;;;3.41;100.00;101125.13;7393855;19;20378;-51
2022/03/28 05:32:50;;;;;;;4.23;2.37;;;;;;;3.50;100.00;101115.66;7388940;19;20395;-54
2022/03/28 05:35:19;;;;;;;3.57;1.93;;;;;;;3.65;100.00;101126.13;7393874;19;20732;-51
2022/03/28 05:37:49;;;;;;;4.80;2.83;;;;;;;3.53;100.00;101120.97;7387605;19;20470;-51
2022/03/28 05:40:18;;;;;;;8.73;3.33;;;;;;;3.61;100.00;101125.03;7393759;19;20882;-50
2022/03/28 05:42:51;;;;;;;9.10;4.07;;;;;;;3.54;100.00;101122.75;7388212;19;20423;-48
2022/03/28 05:45:20;;;;;;;10.07;4.30;;;;;;;3.49;100.00;101129.19;7393396;19;20880;-53
2022/03/28 05:47:50;;;;;;;10.17;5.03;;;;;;;3.54;100.00;101130.41;7387978;19;20439;-52
2022/03/28 05:50:19;;;;;;;11.80;6.47;;;;;;;3.68;100.00;101120.38;7393195;19;20891;-50
2022/03/28 05:52:49;;;;;;;11.60;5.90;;;;;;;3.84;100.00;101137.72;7388506;19;20403;-50
2022/03/28 05:55:18;;;;;;;10.47;5.67;;;;;;;3.55;100.00;101152.63;7393307;19;20391;-49
2022/03/28 05:57:50;;;;;;;9.80;5.00;;;;;;;3.44;100.00;101156.88;7387239;19;20757;-52
2022/03/28 06:00:20;;;;;;;10.73;5.80;;;;;;;3.47;100.00;101156.22;7393238;19;21231;-50
2022/03/28 06:02:50;;;;;;;8.87;5.30;;;;;;;3.42;100.00;101158.44;7387719;19;20932;-52
2022/03/28 06:05:25;;;;;;;48.33;23.50;;;;;;;3.52;100.00;101147.25;7392930;19;20378;-53
2022/03/28 06:07:54;;;;;;;35.50;17.77;;;;;;;3.86;100.00;101143.84;7387127;19;20435;-48
2022/03/28 06:10:24;;;;;;;15.10;7.37;;;;;;;3.64;100.00;101143.09;7392994;19;20392;-46
2022/03/28 06:12:56;;;;;;;10.30;5.90;;;;;;;3.63;100.00;101142.97;7385893;19;20418;-46
2022/03/28 06:15:25;;;;;;;17.90;6.60;;;;;;;3.76;100.00;101132.03;7392827;19;20382;-49
2022/03/28 06:17:55;;;;;;;11.27;6.23;;;;;;;3.81;100.00;101140.94;7386289;19;20443;-50
2022/03/28 06:20:24;;;;;;;11.57;5.30;;;;;;;3.84;100.00;101142.84;7392637;19;20382;-51
2022/03/28 06:22:54;;;;;;;13.13;5.73;;;;;;;3.74;100.00;101142.13;7387324;19;20937;-53
2022/03/28 06:25:24;;;;;;;11.30;5.00;;;;;;;4.04;100.00;101144.31;7395392;19;20463;-48
2022/03/28 06:28:04;;;;;;;8.53;5.70;;;;;;;4.13;100.00;101147.56;7391384;19;20954;-46
2022/03/28 06:30:34;;;;;;;8.23;5.23;;;;;;;4.50;100.00;101149.38;7401677;19;20888;-49
2022/03/28 06:33:03;;;;;;;9.37;5.27;;;;;;;5.06;100.00;101149.84;7394884;19;20759;-50
2022/03/28 06:35:33;;;;;;;11.43;5.10;;;;;;;4.43;100.00;101167.59;7399447;19;20391;-48
2022/03/28 06:38:02;;;;;;;8.17;5.00;;;;;;;4.06;100.00;101178.53;7392517;19;20449;-48
2022/03/28 06:40:32;;;;;;;20.10;11.57;;;;;;;5.16;100.00;101154.84;7399456;19;20429;-54
2022/03/28 06:43:04;;;;;;;22.73;11.23;;;;;;;4.82;100.00;101178.03;7389771;19;20433;-51
2022/03/28 06:45:36;;;;;;;13.90;6.73;;;;;;;4.56;100.00;101185.59;7401741;19;20914;-54
2022/03/28 06:48:06;;;;;;;16.27;8.67;;;;;;;4.37;100.00;101185.91;7394703;19;20526;-50
2022/03/28 06:50:55;;;;;;;17.83;7.87;;;;;;;4.22;100.00;101187.31;7399442;19;20422;-51
2022/03/28 06:53:24;;;;;;;14.93;7.87;;;;;;;4.05;100.00;101194.59;7393306;19;20419;-49
2022/03/28 06:55:54;;;;;;;16.20;8.73;;;;;;;3.94;100.00;101200.59;7399023;19;20379;-47
2022/03/28 06:58:27;;;;;;;13.57;7.77;;;;;;;3.99;100.00;101186.50;7392110;19;20419;-50
2022/03/28 07:00:56;;;;;;;19.77;10.13;;;;;;;4.27;100.00;101170.69;7401288;19;20478;-51
2022/03/28 07:03:26;;;;;;;26.60;14.07;;;;;;;4.45;100.00;101164.38;7394532;19;20443;-47
2022/03/28 07:05:56;;;;;;;17.57;8.70;;;;;;;4.38;100.00;101164.69;7398771;19;20351;-53
2022/03/28 07:08:26;;;;;;;16.23;8.50;;;;;;;4.31;100.00;101163.34;7390101;19;20744;-51
2022/03/28 07:10:55;;;;;;;14.30;7.73;;;;;;;4.40;100.00;101163.13;7398666;19;20407;-50
2022/03/28 07:13:27;;;;;;;15.00;7.80;;;;;;;4.19;100.00;101182.88;7393563;19;20406;-53
2022/03/28 07:15:57;;;;;;;16.07;7.53;;;;;;;4.14;100.00;101187.66;7402311;19;20414;-53
2022/03/28 07:18:27;;;;;;;6.10;3.60;;;;;;;3.98;100.00;101197.47;7385573;19;20909;-49
2022/03/28 07:20:57;;;;;;;7.77;3.77;;;;;;;4.03;100.00;101198.72;7397793;19;20392;-54
2022/03/28 07:23:31;;;;;;;10.47;3.70;;;;;;;4.15;100.00;101196.22;7391553;19;20765;-53
2022/03/28 07:26:01;;;;;;;7.30;4.10;;;;;;;4.12;100.00;101196.88;7397682;19;20392;-51
2022/03/28 07:28:34;;;;;;;7.30;3.87;;;;;;;4.26;100.00;101199.56;7390124;19;20494;-52
2022/03/28 07:31:05;;;;;;;9.80;4.00;;;;;;;4.23;100.00;101202.78;7397129;19;20367;-49
2022/03/28 07:33:34;;;;;;;8.07;4.33;;;;;;;4.33;100.00;101187.34;7391580;19;20419;-51
2022/03/28 07:36:04;;;;;;;7.00;4.07;;;;;;;4.29;100.00;101195.56;7396760;19;20390;-48
2022/03/28 07:38:33;;;;;;;8.50;4.60;;;;;;;4.21;100.00;101201.78;7389208;19;20415;-51
2022/03/28 07:41:03;;;;;;;9.33;4.70;;;;;;;4.18;100.00;101196.44;7396975;19;20919;-51
2022/03/28 07:43:35;;;;;;;8.40;4.70;;;;;;;4.18;100.00;101197.34;7391431;19;20748;-51
2022/03/28 07:46:05;;;;;;;9.70;5.00;;;;;;;4.17;100.00;101205.75;7396609;19;20371;-51
2022/03/28 07:48:34;;;;;;;6.73;3.90;;;;;;;4.07;100.00;101197.28;7388180;19;20411;-52
2022/03/28 07:51:04;;;;;;;44.63;17.77;;;;;;;4.28;100.00;101177.56;7397655;19;20473;-52
2022/03/28 07:53:36;;;;;;;9.23;5.03;;;;;;;4.16;100.00;101178.44;7390167;19;20415;-49
2022/03/28 07:56:06;;;;;;;12.17;5.67;;;;;;;4.13;100.00;101180.75;7400317;19;20392;-54
2022/03/28 07:58:39;;;;;;;9.00;4.87;;;;;;;4.28;100.00;101164.78;7388108;19;20422;-50
2022/03/28 08:01:08;;;;;;;12.30;6.87;;;;;;;4.28;100.00;101169.91;7395206;19;20387;-49
2022/03/28 08:03:38;;;;;;;7.70;4.33;;;;;;;4.31;100.00;101163.34;7386554;19;20424;-52
2022/03/28 08:06:08;;;;;;;8.57;5.03;;;;;;;4.42;100.00;101161.56;7394498;19;20434;-49
2022/03/28 08:08:37;;;;;;;6.03;4.13;;;;;;;4.39;100.00;101171.59;7385324;19;20552;-49
2022/03/28 08:11:09;;;;;;;9.63;5.53;;;;;;;4.42;100.00;101179.47;7399939;19;20471;-53
2022/03/28 08:13:41;;;;;;;7.67;4.83;;;;;;;4.38;100.00;101169.81;7388483;19;20490;-50
2022/03/28 08:16:10;;;;;;;9.30;5.50;;;;;;;4.42;100.00;101160.69;7395528;19;20730;-49
2022/03/28 08:18:41;;;;;;;8.57;5.60;;;;;;;4.38;100.00;101151.94;7391682;19;20801;-48
2022/03/28 08:21:11;;;;;;;9.93;5.23;;;;;;;4.35;100.00;101151.69;7394586;19;20430;-48
2022/03/28 08:23:41;;;;;;;9.73;5.40;;;;;;;4.32;100.00;101143.81;7388969;19;20410;-49
2022/03/28 08:26:10;;;;;;;8.93;5.23;;;;;;;4.29;100.00;101144.47;7395848;19;20423;-46
2022/03/28 08:28:42;;;;;;;8.57;4.37;;;;;;;4.30;100.00;101141.13;7387423;19;20447;-49
2022/03/28 08:31:12;;;;;;;14.40;5.70;;;;;;;4.41;100.00;101138.50;7393735;19;20371;-55
2022/03/28 08:33:42;;;;;;;7.60;4.17;;;;;;;4.44;100.00;101149.81;7389736;19;20459;-56
2022/03/28 08:36:12;;;;;;;6.97;4.40;;;;;;;4.39;100.00;101150.25;7393027;19;20409;-54
2022/03/28 08:38:41;;;;;;;10.97;3.93;;;;;;;4.46;100.00;101147.34;7385599;19;20447;-53
2022/03/28 08:41:14;;;;;;;7.40;4.43;;;;;;;4.56;100.00;101144.69;7394545;19;20891;-52
2022/03/28 08:43:46;;;;;;;11.93;6.50;;;;;;;4.65;100.00;101143.56;7387245;19;20407;-51
2022/03/28 08:46:18;;;;;;;10.77;5.50;;;;;;;4.71;100.00;101149.13;7396415;19;20400;-54
2022/03/28 08:48:48;;;;;;;9.37;5.30;;;;;;;4.75;100.00;101150.22;7386880;19;20411;-56
2022/03/28 08:51:19;;;;;;;6.50;4.70;;;;;;;4.72;100.00;101146.69;7392267;19;20402;-48
2022/03/28 08:53:48;;;;;;;7.73;4.83;;;;;;;4.78;100.00;101143.69;7385772;19;20553;-56
2022/03/28 08:56:18;;;;;;;6.27;4.50;;;;;;;4.74;100.00;101139.13;7395520;19;20735;-50
2022/03/28 08:59:10;;;;;;;6.63;4.30;;;;;;;4.82;100.00;101138.00;7392691;19;20981;-53
2022/03/28 09:01:40;;;;;;;7.93;4.93;;;;;;;4.83;100.00;101134.66;7387454;19;20420;-49
2022/03/28 09:04:10;;;;;;;10.43;3.87;;;;;;;4.71;100.00;101131.22;7395144;19;20920;-53
2022/03/28 09:06:42;;;;;;;6.13;4.00;;;;;;;4.84;100.00;101133.91;7391745;19;20416;-53
2022/03/28 09:09:24;;;;;;;9.20;4.47;;;;;;;4.97;100.00;101137.34;7393956;19;20440;-52
2022/03/28 09:11:55;;;;;;;8.57;4.47;;;;;;;5.06;100.00;101139.63;7388814;19;20427;-54
2022/03/28 09:14:32;;;;;;;5.03;3.80;;;;;;;5.09;100.00;101147.53;7396634;19;20424;-48
2022/03/28 09:17:08;;;;;;;5.80;4.10;;;;;;;5.10;100.00;101150.19;7391854;19;20490;-52
2022/03/28 09:19:49;;;;;;;28.37;12.73;;;;;;;5.27;100.00;101142.78;7394335;19;20993;-55
2022/03/28 09:22:23;;;;;;;6.00;4.17;;;;;;;5.71;100.00;101146.66;7392118;19;20450;-53
2022/03/28 09:24:57;;;;;;;12.10;5.07;;;;;;;6.02;100.00;101161.56;7396208;19;20490;-49
2022/03/28 09:27:28;;;;;;;8.97;4.50;;;;;;;5.65;100.00;101182.06;7386025;19;20455;-51
2022/03/28 09:30:07;;;;;;;57.40;27.80;;;;;;;5.85;100.00;101182.53;7317655;19;20969;-51
2022/03/28 09:32:38;;;;;;;107.30;43.73;;;;;;;5.99;100.00;101194.59;7388910;19;20439;-53
2022/03/28 09:35:19;;;;;;;37.43;17.83;;;;;;;5.71;100.00;101220.91;7394990;19;20413;-51
2022/03/28 09:37:50;;;;;;;6.20;3.73;;;;;;;5.77;100.00;101229.00;7387253;19;20459;-51
2022/03/28 09:40:28;;;;;;;14.33;6.53;;;;;;;5.98;100.00;101228.69;7389585;19;20740;-51
2022/03/28 09:42:58;;;;;;;6.23;3.50;;;;;;;5.72;100.00;101230.34;7388555;19;20428;-49
2022/03/28 09:45:34;;;;;;;5.40;3.40;;;;;;;5.66;100.00;101219.69;7390893;19;20421;-50
2022/03/28 09:48:06;;;;;;;8.90;2.90;;;;;;;5.74;100.00;101226.22;7386804;19;20448;-51
2022/03/28 09:50:39;;;;;;;11.57;3.50;;;;;;;5.72;100.00;101234.56;7390603;19;20962;-57
2022/03/28 09:53:17;;;;;;;5.77;3.67;;;;;;;5.94;100.00;101219.91;7383656;19;20449;-49
2022/03/28 09:55:55;;;;;;;8.80;3.67;;;;;;;5.94;100.00;101226.69;7395481;19;20407;-50
2022/03/28 09:58:42;;;;;;;73.60;31.37;;;;;;;6.57;100.00;101214.66;7389285;19;20444;-53
2022/03/28 10:01:23;;;;;;;8.07;3.40;;;;;;;6.33;100.00;101225.09;7395281;19;20404;-51
2022/03/28 10:03:54;;;;;;;45.80;20.03;;;;;;;6.58;100.00;101224.16;7387822;19;20439;-54
2022/03/28 10:06:25;;;;;;;13.40;7.37;;;;;;;7.12;100.00;101226.69;7395113;19;20747;-51
2022/03/28 10:08:54;;;;;;;9.23;3.30;;;;;;;6.77;100.00;101258.66;7382726;19;20518;-54
2022/03/28 10:11:24;;;;;;;7.03;3.70;;;;;;;6.78;100.00;101260.47;7395313;19;20413;-52
2022/03/28 10:13:54;;;;;;;13.73;6.47;;;;;;;6.87;100.00;101258.47;7389201;19;20981;-55
2022/03/28 10:16:32;;;;;;;7.07;4.20;;;;;;;7.10;100.00;101261.66;7396039;19;20398;-50
2022/03/28 10:19:05;;;;;;;7.03;3.90;;;;;;;6.77;100.00;101270.59;7389768;19;20458;-55
2022/03/28 10:21:36;;;;;;;13.90;6.50;;;;;;;6.97;100.00;101261.66;7394540;19;20419;-53
2022/03/28 10:24:08;;;;;;;18.43;8.83;;;;;;;7.12;100.00;101280.59;7394798;19;20443;-49
2022/03/28 10:26:41;;;;;;;15.50;4.50;;;;;;;6.77;100.00;101276.59;7387972;19;20428;-56
2022/03/28 10:29:11;;;;;;;10.00;3.20;;;;;;;6.64;100.00;101279.16;7393977;19;20434;-50
2022/03/28 10:32:01;;;;;;;7.23;3.90;;;;;;;6.98;100.00;101266.00;7386127;19;20392;-56
2022/03/28 10:34:52;;;;;;;9.20;4.50;;;;;;;7.10;100.00;101271.91;7394518;19;20426;-52
2022/03/28 10:37:33;;;;;;;7.63;3.93;;;;;;;7.23;100.00;101278.69;7386341;19;20438;-48
2022/03/28 10:40:25;;;;;;;10.47;4.60;;;;;;;7.56;100.00;101275.59;7394151;19;20414;-58
2022/03/28 10:43:02;;;;;;;7.80;4.50;;;;;;;7.51;100.00;101294.97;7390834;19;20425;-50
2022/03/28 10:45:37;;;;;;;17.03;8.40;;;;;;;7.30;100.00;101293.69;7394981;19;20422;-51
2022/03/28 10:48:10;;;;;;;6.87;4.60;;;;;;;7.29;100.00;101283.34;7387681;19;20473;-55
2022/03/28 10:50:45;;;;;;;10.00;5.60;;;;;;;7.29;100.00;101281.66;7395032;19;20742;-52
2022/03/28 10:53:16;;;;;;;17.80;9.03;;;;;;;7.51;100.00;101267.63;7386085;19;20456;-53
2022/03/28 10:55:49;;;;;;;9.37;5.40;;;;;;;7.65;100.00;101268.47;7394314;19;20407;-50
2022/03/28 10:58:22;;;;;;;9.00;5.47;;;;;;;7.86;100.00;101270.59;7385636;19;20461;-51
2022/03/28 11:01:19;;;;;;;21.67;11.33;;;;;;;7.95;100.00;101271.13;7394175;19;20492;-53
2022/03/28 11:03:54;;;;;;;115.97;40.87;;;;;;;7.58;100.00;101279.16;7382011;19;20462;-53
2022/03/28 11:06:49;;;;;;;249.67;92.90;;;;;;;7.66;100.00;101257.41;7392550;19;20934;-56
2022/03/28 11:09:50;;;;;;;46.23;22.93;;;;;;;7.61;100.00;101252.78;7390763;19;20799;-50
2022/03/28 11:12:30;;;;;;;17.30;10.37;;;;;;;7.52;100.00;101263.34;7391487;19;20423;-49
2022/03/28 11:15:01;;;;;;;47.23;22.30;;;;;;;7.63;100.00;101249.50;7402144;19;20944;-52
2022/03/28 11:17:32;;;;;;;111.77;49.17;;;;;;;7.83;100.00;101249.84;7383224;19;20503;-53
2022/03/28 11:20:12;;;;;;;15.33;8.03;;;;;;;8.08;100.00;101233.31;7397512;19;20396;-52
2022/03/28 11:22:50;;;;;;;11.80;7.40;;;;;;;8.08;100.00;101248.75;7387757;19;20395;-50
2022/03/28 11:25:38;;;;;;;13.37;6.07;;;;;;;8.07;100.00;101257.25;7400679;19;20387;-55
2022/03/28 11:28:19;;;;;;;8.20;4.50;;;;;;;8.02;100.00;101258.66;7390349;19;20818;-45
2022/03/28 11:30:59;;;;;;;39.13;17.33;;;;;;;8.08;100.00;101256.44;7399317;19;20388;-49
2022/03/28 11:33:44;;;;;;;13.30;6.90;;;;;;;8.11;100.00;101243.81;7393212;19;20418;-51
2022/03/28 11:36:18;;;;;;;23.27;10.63;;;;;;;8.33;100.00;101243.38;7397428;19;20724;-49
2022/03/28 11:38:50;;;;;;;18.93;7.23;;;;;;;8.08;100.00;101239.38;7389784;19;20431;-52
2022/03/28 11:41:22;;;;;;;16.17;8.63;;;;;;;8.07;100.00;101229.00;7397264;19;20387;-53